JAB weather

Rancho Los Jabines Airport
Champoton, Campeche, Mexico

Public forecast

Using degrees Celsius for public forecast. Weather courtesy of forecast.io.

METAR (pilot weather report)

Report is more than 2 hours old.

Closest report is Ingeniero Alberto Acuña Ongay International Airport, 44.1 nm (81.6 km) NNW. Retrieved 2019/08/20 03:43 UTC (5 hours ago):

MMCP 200343Z 09005KT 7SM SKC 25/24 A2994

TAF (pilot weather forecast)

Closest forecast is Ingeniero Alberto Acuña Ongay International Airport, 44.1 nm (81.6 km) NNW. Retrieved 2019/08/20 06:27 UTC (2 hours ago):

TAF MMCP 200525Z 2006/2106 09009KT P6SM SKC TEMPO 2011/2015 5SM HZ BKN020 FM201800 35014KT P6SM SCT030CB BKN080 BKN250 TEMPO 2023/2103 2SM TSRA BKN015CB FM210500 34010KT P6SM BKN020 BKN080